Time,TemperatureF,DewpointF,PressureIn,WindDirection,WindDirectionDegrees,WindSpeedMPH,WindSpeedGustMPH,Humidity,HourlyPrecipIn,Conditions,Clouds,dailyrainin,SoftwareType,DateUTC
2013-03-11 00:00:00,54.9,12.1,29.97,North,0,5.8,9.7,18,0.00,OVC,,0.00,WeatherDisplay:10.37,2013-03-11 05:00:00,
2013-03-11 00:05:00,54.7,11.9,30.00,North,0,6.9,6.9,18,0.00,OVC,,0.00,WeatherDisplay:10.37,2013-03-11 05:05:00,
2013-03-11 00:10:00,54.5,11.8,30.00,North,0,8.1,8.1,18,0.00,OVC,,0.00,WeatherDisplay:10.37,2013-03-11 05:10:00,
2013-03-11 00:15:00,54.3,11.6,30.00,North,0,8.1,8.1,18,0.00,OVC,,0.00,WeatherDisplay:10.37,2013-03-11 05:15:00,
2013-03-11 00:20:00,54.0,11.3,30.03,North,0,8.1,8.1,18,0.00,OVC,,0.00,WeatherDisplay:10.37,2013-03-11 05:20:00,
2013-03-11 00:25:00,53.8,11.2,30.03,North,0,10.4,10.4,18,0.00,OVC,,0.00,WeatherDisplay:10.37,2013-03-11 05:25:00,
2013-03-11 00:30:00,53.4,10.9,30.03,North,0,10.4,10.4,18,0.00,OVC,,0.00,WeatherDisplay:10.37,2013-03-11 05:30:00,
2013-03-11 00:35:00,53.2,10.8,30.06,North,0,10.4,10.4,18,0.00,OVC,,0.00,WeatherDisplay:10.37,2013-03-11 05:35:00,
2013-03-11 00:40:00,52.9,10.5,30.06,North,0,11.5,11.5,18,0.00,OVC,,0.00,WeatherDisplay:10.37,2013-03-11 05:40:00,
2013-03-11 00:45:00,52.5,10.2,30.06,North,0,11.5,11.5,18,0.00,OVC,,0.00,WeatherDisplay:10.37,2013-03-11 05:45:00,
2013-03-11 00:50:00,52.3,10.0,30.06,North,0,11.5,11.5,18,0.00,OVC,,0.00,WeatherDisplay:10.37,2013-03-11 05:50:00,
2013-03-11 00:56:00,52.2,9.9,30.06,North,0,11.5,11.5,18,0.00,OVC,,0.00,WeatherDisplay:10.37,2013-03-11 05:56:00,
2013-03-11 01:01:00,51.8,9.6,30.06,North,0,12.1,12.1,18,0.00,OVC,,0.00,WeatherDisplay:10.37,2013-03-11 06:01:00,
2013-03-11 01:06:00,51.8,9.6,30.09,North,0,12.1,12.1,18,0.00,OVC,,0.00,WeatherDisplay:10.37,2013-03-11 06:06:00,
2013-03-11 01:11:00,51.8,9.6,30.09,North,0,12.1,12.1,18,0.00,OVC,,0.00,WeatherDisplay:10.37,2013-03-11 06:11:00,
2013-03-11 01:16:00,50.9,10.0,30.09,North,0,11.5,11.5,19,0.00,OVC,,0.00,WeatherDisplay:10.37,2013-03-11 06:16:00,
2013-03-11 01:21:00,50.7,9.9,30.06,NW,315,6.9,8.7,19,0.00,OVC,,0.00,WeatherDisplay:10.37,2013-03-11 06:21:00,
2013-03-11 01:26:00,50.5,9.7,30.06,NW,315,6.9,8.7,19,0.00,OVC,,0.00,WeatherDisplay:10.37,2013-03-11 06:26:00,
2013-03-11 01:31:00,50.5,9.7,30.06,NW,315,6.9,8.7,19,0.00,OVC,,0.00,WeatherDisplay:10.37,2013-03-11 06:31:00,
2013-03-11 01:36:00,50.4,9.6,30.09,NNW,338,6.9,6.9,19,0.00,OVC,,0.00,WeatherDisplay:10.37,2013-03-11 06:36:00,
2013-03-11 01:41:00,50.4,9.6,30.09,NNW,338,7.4,7.4,19,0.00,OVC,,0.00,WeatherDisplay:10.37,2013-03-11 06:41:00,
2013-03-11 01:46:00,50.4,9.6,30.09,NNW,338,6.9,6.9,19,0.00,OVC,,0.00,WeatherDisplay:10.37,2013-03-11 06:46:00,
2013-03-11 01:51:00,50.2,9.4,30.09,North,0,8.1,8.1,19,0.00,OVC,,0.00,WeatherDisplay:10.37,2013-03-11 06:51:00,
2013-03-11 01:56:00,50.0,9.3,30.09,North,0,9.2,9.2,19,0.00,OVC,,0.00,WeatherDisplay:10.37,2013-03-11 06:56:00,
2013-03-11 02:02:00,50.0,9.3,30.09,North,0,8.1,8.1,19,0.00,OVC,,0.00,WeatherDisplay:10.37,2013-03-11 07:02:00,
2013-03-11 02:07:00,50.0,9.3,30.09,NNW,338,8.1,8.1,19,0.00,OVC,,0.00,WeatherDisplay:10.37,2013-03-11 07:07:00,
2013-03-11 02:12:00,50.0,9.3,30.09,North,0,9.2,9.2,19,0.00,OVC,,0.00,WeatherDisplay:10.37,2013-03-11 07:12:00,
2013-03-11 02:17:00,49.8,9.1,30.06,North,0,9.2,9.2,19,0.00,OVC,,0.00,WeatherDisplay:10.37,2013-03-11 07:17:00,
2013-03-11 02:22:00,49.8,9.1,30.06,North,0,4.6,4.6,19,0.00,OVC,,0.00,WeatherDisplay:10.37,2013-03-11 07:22:00,
2013-03-11 02:27:00,49.5,8.8,30.06,North,0,8.1,8.1,19,0.00,OVC,,0.00,WeatherDisplay:10.37,2013-03-11 07:27:00,
2013-03-11 02:32:00,49.1,8.5,30.06,NNW,338,9.2,9.2,19,0.00,OVC,,0.00,WeatherDisplay:10.37,2013-03-11 07:32:00,
2013-03-11 02:37:00,49.1,8.5,30.06,North,0,5.8,5.8,19,0.00,OVC,,0.00,WeatherDisplay:10.37,2013-03-11 07:37:00,
2013-03-11 02:42:00,48.9,8.4,30.06,North,0,12.7,12.7,19,0.00,OVC,,0.00,WeatherDisplay:10.37,2013-03-11 07:42:00,
2013-03-11 02:47:00,48.7,8.2,30.06,NNE,22,9.8,9.8,19,0.00,OVC,,0.00,WeatherDisplay:10.37,2013-03-11 07:47:00,
2013-03-11 02:52:00,48.7,8.2,30.06,NE,45,6.9,10.0,19,0.00,OVC,,0.00,WeatherDisplay:10.37,2013-03-11 07:52:00,
2013-03-11 02:57:00,48.7,8.2,30.06,North,0,8.1,9.0,19,0.00,OVC,,0.00,WeatherDisplay:10.37,2013-03-11 07:57:00,
2013-03-11 03:02:00,48.7,8.2,30.06,NNW,338,9.2,9.2,19,0.00,OVC,,0.00,WeatherDisplay:10.37,2013-03-11 08:02:00,
2013-03-11 03:07:00,48.7,8.2,30.06,North,0,12.7,12.7,19,0.00,OVC,,0.00,WeatherDisplay:10.37,2013-03-11 08:07:00,
2013-03-11 03:12:00,48.6,8.1,30.06,North,0,12.7,12.7,19,0.00,OVC,,0.00,WeatherDisplay:10.37,2013-03-11 08:12:00,
2013-03-11 03:18:00,48.4,7.9,30.06,North,0,8.5,8.5,19,0.00,OVC,,0.00,WeatherDisplay:10.37,2013-03-11 08:18:00,
2013-03-11 03:23:00,48.2,7.8,30.06,North,0,3.8,5.9,19,0.00,OVC,,0.00,WeatherDisplay:10.37,2013-03-11 08:23:00,
2013-03-11 03:28:00,48.2,7.8,30.06,NNE,22,2.3,4.5,19,0.00,OVC,,0.00,WeatherDisplay:10.37,2013-03-11 08:28:00,
2013-03-11 03:33:00,48.0,7.6,30.09,North,0,4.6,6.2,19,0.00,OVC,,0.00,WeatherDisplay:10.37,2013-03-11 08:33:00,
2013-03-11 03:38:00,48.0,7.6,30.09,NNW,338,4.6,4.6,19,0.00,OVC,,0.00,WeatherDisplay:10.37,2013-03-11 08:38:00,
2013-03-11 03:43:00,48.0,7.6,30.09,North,0,4.6,4.6,19,0.00,OVC,,0.00,WeatherDisplay:10.37,2013-03-11 08:43:00,
2013-03-11 03:48:00,48.0,7.6,30.06,North,0,4.6,4.6,19,0.00,OVC,,0.00,WeatherDisplay:10.37,2013-03-11 08:48:00,
2013-03-11 03:53:00,47.8,7.5,30.06,North,0,4.6,4.6,19,0.00,OVC,,0.00,WeatherDisplay:10.37,2013-03-11 08:53:00,
2013-03-11 03:58:00,47.7,7.3,30.06,North,0,2.3,3.1,19,0.00,OVC,,0.00,WeatherDisplay:10.37,2013-03-11 08:58:00,
2013-03-11 04:03:00,47.5,7.2,30.06,North,0,2.3,3.1,19,0.00,OVC,,0.00,WeatherDisplay:10.37,2013-03-11 09:03:00,
2013-03-11 04:08:00,47.3,7.0,30.06,North,0,2.3,3.1,19,0.00,OVC,,0.00,WeatherDisplay:10.37,2013-03-11 09:08:00,
2013-03-11 04:13:00,47.3,7.0,30.06,North,0,4.6,4.6,19,0.00,OVC,,0.00,WeatherDisplay:10.37,2013-03-11 09:13:00,
2013-03-11 04:18:00,47.3,7.0,30.06,North,0,2.6,3.1,19,0.00,OVC,,0.00,WeatherDisplay:10.37,2013-03-11 09:18:00,
2013-03-11 04:23:00,47.5,7.2,30.06,NE,45,0.0,2.9,19,0.00,OVC,,0.00,WeatherDisplay:10.37,2013-03-11 09:23:00,
2013-03-11 04:28:00,47.5,7.2,30.06,NNE,22,3.5,3.5,19,0.00,OVC,,0.00,WeatherDisplay:10.37,2013-03-11 09:28:00,
2013-03-11 04:33:00,47.3,7.0,30.06,NNW,338,2.3,2.3,19,0.00,OVC,,0.00,WeatherDisplay:10.37,2013-03-11 09:33:00,
2013-03-11 04:38:00,47.1,6.9,30.06,NNE,22,6.9,6.9,19,0.00,OVC,,0.00,WeatherDisplay:10.37,2013-03-11 09:38:00,
2013-03-11 04:43:00,46.9,6.7,30.06,NNE,22,2.3,2.3,19,0.00,OVC,,0.00,WeatherDisplay:10.37,2013-03-11 09:43:00,
2013-03-11 04:48:00,46.6,6.4,30.06,East,90,0.0,2.4,19,0.00,OVC,,0.00,WeatherDisplay:10.37,2013-03-11 09:48:00,
2013-03-11 04:53:00,46.6,6.4,30.06,East,90,0.0,2.4,19,0.00,OVC,,0.00,WeatherDisplay:10.37,2013-03-11 09:53:00,
2013-03-11 04:58:00,46.8,6.6,30.06,NNW,338,0.0,0.0,19,0.00,OVC,,0.00,WeatherDisplay:10.37,2013-03-11 09:58:00,
2013-03-11 05:03:00,46.8,6.6,30.09,North,0,4.6,4.6,19,0.00,OVC,,0.00,WeatherDisplay:10.37,2013-03-11 10:03:00,
2013-03-11 05:08:00,46.8,6.6,30.09,NNW,338,1.2,1.6,19,0.00,OVC,,0.00,WeatherDisplay:10.37,2013-03-11 10:08:00,
2013-03-11 05:13:00,46.9,6.7,30.09,WNW,292,3.5,0.0,19,0.00,OVC,,0.00,WeatherDisplay:10.37,2013-03-11 10:13:00,
2013-03-11 05:18:00,46.9,6.7,30.09,WNW,292,0.0,0.0,19,0.00,OVC,,0.00,WeatherDisplay:10.37,2013-03-11 10:18:00,
2013-03-11 05:23:00,46.9,6.7,30.09,WNW,292,0.0,0.0,19,0.00,OVC,,0.00,WeatherDisplay:10.37,2013-03-11 10:23:00,
2013-03-11 05:28:00,46.9,6.7,30.09,WNW,292,0.0,0.0,19,0.00,OVC,,0.00,WeatherDisplay:10.37,2013-03-11 10:28:00,
2013-03-11 05:33:00,46.9,6.7,30.09,WNW,292,0.0,0.0,19,0.00,OVC,,0.00,WeatherDisplay:10.37,2013-03-11 10:33:00,
2013-03-11 05:38:00,46.9,6.7,30.09,WNW,292,0.0,0.0,19,0.00,OVC,,0.00,WeatherDisplay:10.37,2013-03-11 10:38:00,
2013-03-11 05:43:00,46.9,6.7,30.09,WNW,292,0.0,0.0,19,0.00,OVC,,0.00,WeatherDisplay:10.37,2013-03-11 10:43:00,
2013-03-11 05:48:00,46.6,6.4,30.09,WNW,292,0.0,0.0,19,0.00,OVC,,0.00,WeatherDisplay:10.37,2013-03-11 10:48:00,
2013-03-11 05:53:00,46.6,6.4,30.09,WNW,292,0.0,0.0,19,0.00,OVC,,0.00,WeatherDisplay:10.37,2013-03-11 10:53:00,
2013-03-11 05:58:00,46.4,6.3,30.09,NW,315,1.2,2.2,19,0.00,OVC,,0.00,WeatherDisplay:10.37,2013-03-11 10:58:00,
2013-03-11 06:03:00,46.4,6.3,30.09,North,0,0.0,0.0,19,0.00,OVC,,0.00,WeatherDisplay:10.37,2013-03-11 11:03:00,
2013-03-11 06:08:00,46.4,6.3,30.09,North,0,3.6,3.6,19,0.00,OVC,,0.00,WeatherDisplay:10.37,2013-03-11 11:08:00,
2013-03-11 06:13:00,46.4,6.3,30.09,North,0,3.5,3.5,19,0.00,BKN,,0.00,WeatherDisplay:10.37,2013-03-11 11:13:00,
2013-03-11 06:18:00,46.4,6.3,30.09,North,0,3.5,3.5,19,0.00,BKN,,0.00,WeatherDisplay:10.37,2013-03-11 11:18:00,
2013-03-11 06:23:00,46.4,6.3,30.09,North,0,3.5,3.5,19,0.00,BKN,,0.00,WeatherDisplay:10.37,2013-03-11 11:23:00,
2013-03-11 06:28:00,46.4,6.3,30.09,North,0,4.6,4.6,19,0.00,BKN,,0.00,WeatherDisplay:10.37,2013-03-11 11:28:00,
2013-03-11 06:33:00,46.4,6.3,30.09,North,0,4.6,4.6,19,0.00,BKN,,0.00,WeatherDisplay:10.37,2013-03-11 11:33:00,
2013-03-11 06:38:00,46.4,6.3,30.09,North,0,4.6,4.6,19,0.00,BKN,,0.00,WeatherDisplay:10.37,2013-03-11 11:38:00,
2013-03-11 06:43:00,46.2,7.3,30.09,North,0,4.6,4.6,20,0.00,BKN,,0.00,WeatherDisplay:10.37,2013-03-11 11:43:00,
2013-03-11 06:48:00,46.2,7.3,30.06,North,0,4.6,4.6,20,0.00,BKN,,0.00,WeatherDisplay:10.37,2013-03-11 11:48:00,
2013-03-11 06:54:00,46.0,7.1,30.06,North,0,4.6,4.6,20,0.00,BKN,,0.00,WeatherDisplay:10.37,2013-03-11 11:54:00,
2013-03-11 06:59:00,46.0,7.1,30.06,North,0,4.6,4.6,20,0.00,BKN,,0.00,WeatherDisplay:10.37,2013-03-11 11:59:00,
2013-03-11 07:04:00,46.0,7.1,30.09,North,0,4.6,4.6,20,0.00,OVC,,0.00,WeatherDisplay:10.37,2013-03-11 12:04:00,
2013-03-11 07:09:00,46.0,7.1,30.09,North,0,4.6,4.6,20,0.00,OVC,,0.00,WeatherDisplay:10.37,2013-03-11 12:09:00,
2013-03-11 07:14:00,46.0,7.1,30.09,North,0,4.6,4.6,20,0.00,OVC,,0.00,WeatherDisplay:10.37,2013-03-11 12:14:00,
2013-03-11 07:19:00,46.0,7.1,30.09,NNW,338,6.0,6.0,20,0.00,OVC,,0.00,WeatherDisplay:10.37,2013-03-11 12:19:00,
2013-03-11 07:24:00,46.0,7.1,30.09,North,0,5.8,5.9,20,0.00,OVC,,0.00,WeatherDisplay:10.37,2013-03-11 12:24:00,
2013-03-11 07:29:00,45.9,7.0,30.09,NNW,338,2.3,3.3,20,0.00,OVC,,0.00,WeatherDisplay:10.37,2013-03-11 12:29:00,
2013-03-11 07:34:00,45.9,7.0,30.09,NNW,338,4.3,4.3,20,0.00,OVC,,0.00,WeatherDisplay:10.37,2013-03-11 12:34:00,
2013-03-11 07:39:00,45.9,7.0,30.09,NNW,338,4.6,4.6,20,0.00,OVC,,0.00,WeatherDisplay:10.37,2013-03-11 12:39:00,
2013-03-11 07:44:00,45.9,7.0,30.09,NNW,338,4.6,4.6,20,0.00,OVC,,0.00,WeatherDisplay:10.37,2013-03-11 12:44:00,
2013-03-11 07:49:00,45.7,6.8,30.09,North,0,4.6,4.6,20,0.00,OVC,,0.00,WeatherDisplay:10.37,2013-03-11 12:49:00,
2013-03-11 07:54:00,45.7,6.8,30.09,North,0,4.6,4.6,20,0.00,OVC,,0.00,WeatherDisplay:10.37,2013-03-11 12:54:00,
2013-03-11 07:59:00,45.9,7.0,30.09,NNW,338,4.6,4.6,20,0.00,OVC,,0.00,WeatherDisplay:10.37,2013-03-11 12:59:00,
2013-03-11 08:04:00,45.9,7.0,30.12,North,0,4.9,4.9,20,0.00,OVC,,0.00,WeatherDisplay:10.37,2013-03-11 13:04:00,
2013-03-11 08:09:00,45.9,7.0,30.12,NNW,338,3.5,3.6,20,0.00,OVC,,0.00,WeatherDisplay:10.37,2013-03-11 13:09:00,
2013-03-11 08:14:00,46.0,7.1,30.12,NNW,338,2.3,2.9,20,0.00,OVC,,0.00,WeatherDisplay:10.37,2013-03-11 13:14:00,
2013-03-11 08:19:00,46.2,7.3,30.15,NNW,338,3.5,3.5,20,0.00,OVC,,0.00,WeatherDisplay:10.37,2013-03-11 13:19:00,
2013-03-11 08:24:00,46.4,6.3,30.15,North,0,5.8,5.8,19,0.00,OVC,,0.00,WeatherDisplay:10.37,2013-03-11 13:24:00,
2013-03-11 08:29:00,46.8,6.6,30.15,North,0,5.8,5.8,19,0.00,OVC,,0.00,WeatherDisplay:10.37,2013-03-11 13:29:00,
2013-03-11 08:34:00,46.9,6.7,30.15,North,0,5.8,5.8,19,0.00,OVC,,0.00,WeatherDisplay:10.37,2013-03-11 13:34:00,
2013-03-11 08:39:00,47.3,7.0,30.15,North,0,5.8,5.8,19,0.00,OVC,,0.00,WeatherDisplay:10.37,2013-03-11 13:39:00,
2013-03-11 08:44:00,47.8,7.5,30.15,NNE,22,6.0,6.0,19,0.00,OVC,,0.00,WeatherDisplay:10.37,2013-03-11 13:44:00,
2013-03-11 08:49:00,49.6,9.0,30.15,NNW,338,4.6,6.0,19,0.00,OVC,,0.00,WeatherDisplay:10.37,2013-03-11 13:49:00,
2013-03-11 08:54:00,50.4,9.6,30.15,North,0,9.2,9.2,19,0.00,OVC,,0.00,WeatherDisplay:10.37,2013-03-11 13:54:00,
2013-03-11 08:59:00,51.3,10.3,30.15,North,0,6.9,6.9,19,0.00,OVC,,0.00,WeatherDisplay:10.37,2013-03-11 13:59:00,
2013-03-11 09:04:00,51.8,9.6,30.15,NNW,338,6.2,6.2,18,0.00,OVC,,0.00,WeatherDisplay:10.37,2013-03-11 14:04:00,
2013-03-11 09:09:00,52.2,9.9,30.15,NNW,338,5.8,6.2,18,0.00,OVC,,0.00,WeatherDisplay:10.37,2013-03-11 14:09:00,
2013-03-11 09:14:00,52.7,10.3,30.15,NNE,22,4.6,5.4,18,0.00,OVC,,0.00,WeatherDisplay:10.37,2013-03-11 14:14:00,
2013-03-11 09:19:00,52.5,10.2,30.15,North,0,8.1,8.1,18,0.00,OVC,,0.00,WeatherDisplay:10.37,2013-03-11 14:19:00,
2013-03-11 09:24:00,52.7,10.3,30.15,North,0,6.0,6.7,18,0.00,FEW,,0.00,WeatherDisplay:10.37,2013-03-11 14:24:00,
2013-03-11 09:29:00,52.9,10.5,30.15,North,0,8.1,8.1,18,0.00,FEW,,0.00,WeatherDisplay:10.37,2013-03-11 14:29:00,
2013-03-11 09:34:00,53.4,10.9,30.15,North,0,8.1,8.1,18,0.00,FEW,,0.00,WeatherDisplay:10.37,2013-03-11 14:34:00,
2013-03-11 09:39:00,54.3,11.6,30.15,North,0,5.8,5.8,18,0.00,FEW,,0.00,WeatherDisplay:10.37,2013-03-11 14:39:00,
2013-03-11 09:44:00,55.0,12.2,30.15,NNE,22,5.8,6.2,18,0.00,FEW,,0.00,WeatherDisplay:10.37,2013-03-11 14:44:00,
2013-03-11 09:49:00,54.5,11.8,30.15,North,0,9.2,9.2,18,0.00,FEW,,0.00,WeatherDisplay:10.37,2013-03-11 14:49:00,
2013-03-11 09:54:00,54.7,11.9,30.15,North,0,9.2,9.2,18,0.00,FEW,,0.00,WeatherDisplay:10.37,2013-03-11 14:54:00,
2013-03-11 09:59:00,54.3,11.6,30.15,North,0,11.5,11.5,18,0.00,FEW,,0.00,WeatherDisplay:10.37,2013-03-11 14:59:00,
2013-03-11 10:04:00,54.9,12.1,30.12,North,0,6.9,8.1,18,0.00,FEW,,0.00,WeatherDisplay:10.37,2013-03-11 15:04:00,
2013-03-11 10:09:00,55.4,11.2,30.12,NNE,22,8.1,9.7,17,0.00,FEW,,0.00,WeatherDisplay:10.37,2013-03-11 15:09:00,
2013-03-11 10:14:00,55.2,12.4,30.12,North,0,10.4,10.4,18,0.00,CLR,,0.00,WeatherDisplay:10.37,2013-03-11 15:14:00,
2013-03-11 10:19:00,55.6,11.4,30.15,NNE,22,10.4,10.4,17,0.00,CLR,,0.00,WeatherDisplay:10.37,2013-03-11 15:19:00,
2013-03-11 10:24:00,55.8,11.5,30.15,NW,315,11.5,11.5,17,0.00,CLR,,0.00,WeatherDisplay:10.37,2013-03-11 15:24:00,
2013-03-11 10:29:00,55.8,11.5,30.15,NNE,22,11.5,11.5,17,0.00,CLR,,0.00,WeatherDisplay:10.37,2013-03-11 15:29:00,
2013-03-11 10:34:00,55.8,11.5,30.12,NNE,22,10.4,10.4,17,0.00,CLR,,0.00,WeatherDisplay:10.37,2013-03-11 15:34:00,
2013-03-11 10:39:00,56.7,12.3,30.12,North,0,6.9,6.9,17,0.00,CLR,,0.00,WeatherDisplay:10.37,2013-03-11 15:39:00,
2013-03-11 10:44:00,57.7,13.2,30.12,NNE,22,6.9,6.9,17,0.00,CLR,,0.00,WeatherDisplay:10.37,2013-03-11 15:44:00,
2013-03-11 10:49:00,58.1,13.4,30.15,North,0,8.1,8.1,17,0.00,CLR,,0.00,WeatherDisplay:10.37,2013-03-11 15:49:00,
2013-03-11 10:55:00,59.4,14.5,30.15,NNE,22,8.1,8.1,17,0.00,CLR,,0.00,WeatherDisplay:10.37,2013-03-11 15:55:00,
2013-03-11 11:00:00,59.0,14.2,30.15,NE,45,10.4,10.4,17,0.00,CLR,,0.00,WeatherDisplay:10.37,2013-03-11 16:00:00,
2013-03-11 11:05:00,58.8,14.0,30.15,NNW,338,10.4,10.4,17,0.00,CLR,,0.00,WeatherDisplay:10.37,2013-03-11 16:05:00,
2013-03-11 11:10:00,58.5,13.7,30.15,NNE,22,10.4,11.4,17,0.00,CLR,,0.00,WeatherDisplay:10.37,2013-03-11 16:10:00,
2013-03-11 11:15:00,57.6,13.0,30.15,North,0,15.0,15.0,17,0.00,CLR,,0.00,WeatherDisplay:10.37,2013-03-11 16:15:00,
2013-03-11 11:20:00,57.2,12.7,30.15,NNW,338,10.4,11.4,17,0.00,CLR,,0.00,WeatherDisplay:10.37,2013-03-11 16:20:00,
2013-03-11 11:25:00,57.9,13.3,30.15,NNW,338,6.0,6.4,17,0.00,CLR,,0.00,WeatherDisplay:10.37,2013-03-11 16:25:00,
2013-03-11 11:30:00,58.3,13.6,30.15,North,0,10.4,11.2,17,0.00,CLR,,0.00,WeatherDisplay:10.37,2013-03-11 16:30:00,
2013-03-11 11:35:00,58.8,14.0,30.15,North,0,10.4,10.4,17,0.00,CLR,,0.00,WeatherDisplay:10.37,2013-03-11 16:35:00,
2013-03-11 11:40:00,59.0,14.2,30.15,NNW,338,12.7,12.7,17,0.00,CLR,,0.00,WeatherDisplay:10.37,2013-03-11 16:40:00,
2013-03-11 11:45:00,58.8,14.0,30.15,NNE,22,10.4,10.4,17,0.00,CLR,,0.00,WeatherDisplay:10.37,2013-03-11 16:45:00,
2013-03-11 11:50:00,59.5,14.6,30.15,North,0,9.2,9.2,17,0.00,CLR,,0.00,WeatherDisplay:10.37,2013-03-11 16:50:00,
2013-03-11 11:55:00,59.7,14.8,30.15,North,0,10.2,10.2,17,0.00,CLR,,0.00,WeatherDisplay:10.37,2013-03-11 16:55:00,
2013-03-11 12:00:00,60.1,15.1,30.15,NNE,22,10.4,10.4,17,0.00,CLR,,0.00,WeatherDisplay:10.37,2013-03-11 17:00:00,
2013-03-11 12:05:00,60.8,14.3,30.15,NNW,338,11.5,11.5,16,0.00,CLR,,0.00,WeatherDisplay:10.37,2013-03-11 17:05:00,
2013-03-11 12:10:00,59.5,14.6,30.15,NW,315,12.7,12.7,17,0.00,CLR,,0.00,WeatherDisplay:10.37,2013-03-11 17:10:00,
2013-03-11 12:15:00,60.1,15.1,30.15,NNW,338,8.1,8.1,17,0.00,CLR,,0.00,WeatherDisplay:10.37,2013-03-11 17:15:00,
2013-03-11 12:20:00,60.6,15.5,30.15,North,0,10.4,10.4,17,0.00,CLR,,0.00,WeatherDisplay:10.37,2013-03-11 17:20:00,
2013-03-11 12:25:00,61.7,15.0,30.15,North,0,4.6,4.6,16,0.00,CLR,,0.00,WeatherDisplay:10.37,2013-03-11 17:25:00,
2013-03-11 12:30:00,60.6,15.5,30.15,North,0,9.2,9.2,17,0.00,CLR,,0.00,WeatherDisplay:10.37,2013-03-11 17:30:00,
2013-03-11 12:35:00,60.8,14.3,30.09,North,0,9.2,9.2,16,0.00,CLR,,0.00,WeatherDisplay:10.37,2013-03-11 17:35:00,
2013-03-11 12:40:00,60.1,15.1,30.09,North,0,10.4,10.4,17,0.00,CLR,,0.00,WeatherDisplay:10.37,2013-03-11 17:40:00,
2013-03-11 12:45:00,60.1,15.1,30.09,North,0,12.8,12.8,17,0.00,CLR,,0.00,WeatherDisplay:10.37,2013-03-11 17:45:00,
2013-03-11 12:50:00,60.4,15.4,30.12,NNW,338,10.4,10.4,17,0.00,CLR,,0.00,WeatherDisplay:10.37,2013-03-11 17:50:00,
2013-03-11 12:55:00,60.6,15.5,30.12,North,0,10.4,10.4,17,0.00,CLR,,0.00,WeatherDisplay:10.37,2013-03-11 17:55:00,
2013-03-11 13:00:00,61.5,14.8,30.12,NNW,338,9.2,9.2,16,0.00,CLR,,0.00,WeatherDisplay:10.37,2013-03-11 18:00:00,
2013-03-11 13:05:00,60.6,15.5,30.09,NNW,338,10.4,10.4,17,0.00,CLR,,0.00,WeatherDisplay:10.37,2013-03-11 18:05:00,
2013-03-11 13:10:00,61.3,14.7,30.09,North,0,10.4,10.4,16,0.00,CLR,,0.00,WeatherDisplay:10.37,2013-03-11 18:10:00,
2013-03-11 13:15:00,60.6,15.5,30.09,NNW,338,12.7,12.7,17,0.00,CLR,,0.00,WeatherDisplay:10.37,2013-03-11 18:15:00,
2013-03-11 13:20:00,60.4,15.4,30.09,NNW,338,8.1,10.7,17,0.00,CLR,,0.00,WeatherDisplay:10.37,2013-03-11 18:20:00,
2013-03-11 13:25:00,61.5,14.8,30.09,NNE,22,10.4,10.4,16,0.00,CLR,,0.00,WeatherDisplay:10.37,2013-03-11 18:25:00,
2013-03-11 13:30:00,62.1,15.3,30.09,North,0,8.1,8.1,16,0.00,CLR,,0.00,WeatherDisplay:10.37,2013-03-11 18:30:00,
2013-03-11 13:35:00,62.2,15.4,30.09,North,0,11.5,11.5,16,0.00,CLR,,0.00,WeatherDisplay:10.37,2013-03-11 18:35:00,
2013-03-11 13:40:00,62.4,15.6,30.09,NNW,338,12.7,12.7,16,0.00,CLR,,0.00,WeatherDisplay:10.37,2013-03-11 18:40:00,
2013-03-11 13:45:00,62.6,15.7,30.09,North,0,12.7,12.7,16,0.00,CLR,,0.00,WeatherDisplay:10.37,2013-03-11 18:45:00,
2013-03-11 13:50:00,63.1,16.2,30.09,NNW,338,6.9,6.9,16,0.00,CLR,,0.00,WeatherDisplay:10.37,2013-03-11 18:50:00,
2013-03-11 13:55:00,63.9,16.7,30.09,NNE,22,10.4,10.4,16,0.00,CLR,,0.00,WeatherDisplay:10.37,2013-03-11 18:55:00,
2013-03-11 14:01:00,63.1,16.2,30.09,NNW,338,10.4,10.9,16,0.00,CLR,,0.00,WeatherDisplay:10.37,2013-03-11 19:01:00,
2013-03-11 14:06:00,62.6,15.7,30.09,NNW,338,11.5,11.5,16,0.00,CLR,,0.00,WeatherDisplay:10.37,2013-03-11 19:06:00,
2013-03-11 14:12:00,62.8,15.9,30.09,NE,45,12.5,12.5,16,0.00,CLR,,0.00,WeatherDisplay:10.37,2013-03-11 19:12:00,
2013-03-11 14:17:00,63.3,16.3,30.06,NNE,22,8.1,8.1,16,0.00,CLR,,0.00,WeatherDisplay:10.37,2013-03-11 19:17:00,
2013-03-11 14:22:00,62.6,15.7,30.06,NNE,22,5.8,7.4,16,0.00,CLR,,0.00,WeatherDisplay:10.37,2013-03-11 19:22:00,
2013-03-11 14:27:00,62.2,15.4,30.06,North,0,9.2,10.9,16,0.00,CLR,,0.00,WeatherDisplay:10.37,2013-03-11 19:27:00,
2013-03-11 14:32:00,63.5,16.4,30.06,North,0,8.1,8.1,16,0.00,CLR,,0.00,WeatherDisplay:10.37,2013-03-11 19:32:00,
2013-03-11 14:37:00,64.0,16.9,30.06,North,0,12.7,12.7,16,0.00,CLR,,0.00,WeatherDisplay:10.37,2013-03-11 19:37:00,
2013-03-11 14:42:00,63.5,16.4,30.06,North,0,10.4,13.0,16,0.00,CLR,,0.00,WeatherDisplay:10.37,2013-03-11 19:42:00,
2013-03-11 14:47:00,63.0,16.0,30.06,North,0,10.4,10.4,16,0.00,CLR,,0.00,WeatherDisplay:10.37,2013-03-11 19:47:00,
2013-03-11 14:52:00,64.2,17.0,30.06,SE,135,4.6,4.6,16,0.00,CLR,,0.00,WeatherDisplay:10.37,2013-03-11 19:52:00,
2013-03-11 14:57:00,64.9,16.1,30.06,North,0,9.2,9.2,15,0.00,CLR,,0.00,WeatherDisplay:10.37,2013-03-11 19:57:00,
2013-03-11 15:02:00,65.8,16.8,30.03,North,0,5.8,5.8,15,0.00,CLR,,0.00,WeatherDisplay:10.37,2013-03-11 20:02:00,
2013-03-11 15:07:00,64.6,15.8,30.03,North,0,10.4,10.4,15,0.00,CLR,,0.00,WeatherDisplay:10.37,2013-03-11 20:07:00,
2013-03-11 15:12:00,64.0,16.9,30.03,NNW,338,9.2,9.2,16,0.00,CLR,,0.00,WeatherDisplay:10.37,2013-03-11 20:12:00,
2013-03-11 15:17:00,64.4,15.7,30.03,NNW,338,10.4,10.9,15,0.00,CLR,,0.00,WeatherDisplay:10.37,2013-03-11 20:17:00,
2013-03-11 15:22:00,64.4,15.7,30.03,North,0,11.8,11.8,15,0.00,CLR,,0.00,WeatherDisplay:10.37,2013-03-11 20:22:00,
2013-03-11 15:27:00,63.9,16.7,30.03,NNE,22,5.8,5.8,16,0.00,CLR,,0.00,WeatherDisplay:10.37,2013-03-11 20:27:00,
2013-03-11 15:32:00,65.7,16.7,30.03,NE,45,5.8,5.8,15,0.00,CLR,,0.00,WeatherDisplay:10.37,2013-03-11 20:32:00,
2013-03-11 15:37:00,64.8,16.0,30.03,NNE,22,12.7,12.7,15,0.00,CLR,,0.00,WeatherDisplay:10.37,2013-03-11 20:37:00,
2013-03-11 15:42:00,64.4,15.7,30.03,NNW,338,10.4,10.4,15,0.00,CLR,,0.00,WeatherDisplay:10.37,2013-03-11 20:42:00,
2013-03-11 15:47:00,65.5,16.5,30.03,NNW,338,8.1,8.1,15,0.00,CLR,,0.00,WeatherDisplay:10.37,2013-03-11 20:47:00,
2013-03-11 15:52:00,66.2,17.1,30.03,East,90,6.9,6.9,15,0.00,CLR,,0.00,WeatherDisplay:10.37,2013-03-11 20:52:00,
2013-03-11 15:58:00,65.7,16.7,30.03,North,0,11.5,11.5,15,0.00,CLR,,0.00,WeatherDisplay:10.37,2013-03-11 20:58:00,
2013-03-11 16:03:00,64.8,16.0,30.06,North,0,8.1,8.1,15,0.00,CLR,,0.00,WeatherDisplay:10.37,2013-03-11 21:03:00,
2013-03-11 16:08:00,64.4,15.7,30.06,North,0,9.8,9.8,15,0.00,CLR,,0.00,WeatherDisplay:10.37,2013-03-11 21:08:00,
2013-03-11 16:13:00,64.8,16.0,30.06,North,0,6.9,6.9,15,0.00,CLR,,0.00,WeatherDisplay:10.37,2013-03-11 21:13:00,
2013-03-11 16:18:00,66.0,17.0,30.03,North,0,5.8,5.8,15,0.00,CLR,,0.00,WeatherDisplay:10.37,2013-03-11 21:18:00,
2013-03-11 16:23:00,65.5,16.5,30.03,North,0,8.1,8.1,15,0.00,CLR,,0.00,WeatherDisplay:10.37,2013-03-11 21:23:00,
2013-03-11 16:28:00,64.6,15.8,30.03,North,0,8.1,8.1,15,0.00,CLR,,0.00,WeatherDisplay:10.37,2013-03-11 21:28:00,
2013-03-11 16:33:00,64.9,16.1,30.03,North,0,6.9,7.8,15,0.00,CLR,,0.00,WeatherDisplay:10.37,2013-03-11 21:33:00,
2013-03-11 16:38:00,65.1,16.3,30.03,North,0,11.5,11.5,15,0.00,CLR,,0.00,WeatherDisplay:10.37,2013-03-11 21:38:00,
2013-03-11 16:43:00,65.8,16.8,30.03,NNE,22,6.9,6.9,15,0.00,CLR,,0.00,WeatherDisplay:10.37,2013-03-11 21:43:00,
2013-03-11 16:48:00,65.7,16.7,30.03,NNE,22,5.8,5.8,15,0.00,CLR,,0.00,WeatherDisplay:10.37,2013-03-11 21:48:00,
2013-03-11 16:53:00,66.0,17.0,30.03,North,0,7.6,7.6,15,0.00,CLR,,0.00,WeatherDisplay:10.37,2013-03-11 21:53:00,
2013-03-11 16:58:00,64.8,16.0,30.03,North,0,8.1,8.1,15,0.00,CLR,,0.00,WeatherDisplay:10.37,2013-03-11 21:58:00,
2013-03-11 17:03:00,65.1,16.3,30.00,North,0,5.8,5.9,15,0.00,CLR,,0.00,WeatherDisplay:10.37,2013-03-11 22:03:00,
2013-03-11 17:08:00,65.7,16.7,30.00,North,0,8.1,8.1,15,0.00,CLR,,0.00,WeatherDisplay:10.37,2013-03-11 22:08:00,
2013-03-11 17:13:00,64.8,16.0,30.00,NNW,338,6.9,6.9,15,0.00,CLR,,0.00,WeatherDisplay:10.37,2013-03-11 22:13:00,
2013-03-11 17:18:00,64.4,15.7,30.00,North,0,8.1,8.1,15,0.00,CLR,,0.00,WeatherDisplay:10.37,2013-03-11 22:18:00,
2013-03-11 17:23:00,64.2,17.0,30.00,North,0,5.8,6.0,16,0.00,CLR,,0.00,WeatherDisplay:10.37,2013-03-11 22:23:00,
2013-03-11 17:28:00,64.4,15.7,30.00,North,0,8.1,8.1,15,0.00,CLR,,0.00,WeatherDisplay:10.37,2013-03-11 22:28:00,
2013-03-11 17:33:00,64.2,17.0,30.00,NNE,22,7.1,9.4,16,0.00,CLR,,0.00,WeatherDisplay:10.37,2013-03-11 22:33:00,
2013-03-11 17:38:00,65.3,16.4,30.00,ESE,112,4.6,4.6,15,0.00,CLR,,0.00,WeatherDisplay:10.37,2013-03-11 22:38:00,
2013-03-11 17:43:00,64.6,15.8,30.00,North,0,5.8,7.1,15,0.00,CLR,,0.00,WeatherDisplay:10.37,2013-03-11 22:43:00,
2013-03-11 17:48:00,64.4,15.7,30.00,North,0,5.8,7.1,15,0.00,CLR,,0.00,WeatherDisplay:10.37,2013-03-11 22:48:00,
2013-03-11 17:53:00,64.4,15.7,30.00,North,0,5.8,7.1,15,0.00,CLR,,0.00,WeatherDisplay:10.37,2013-03-11 22:53:00,
2013-03-11 17:58:00,63.5,16.4,30.00,North,0,5.8,7.1,16,0.00,CLR,,0.00,WeatherDisplay:10.37,2013-03-11 22:58:00,
2013-03-11 18:03:00,63.3,16.3,30.00,North,0,7.4,7.4,16,0.00,CLR,,0.00,WeatherDisplay:10.37,2013-03-11 23:03:00,
2013-03-11 18:08:00,63.1,16.2,30.00,North,0,7.4,7.4,16,0.00,CLR,,0.00,WeatherDisplay:10.37,2013-03-11 23:08:00,
2013-03-11 18:13:00,63.1,16.2,30.00,NNE,22,8.1,8.1,16,0.00,CLR,,0.00,WeatherDisplay:10.37,2013-03-11 23:13:00,
2013-03-11 18:19:00,64.4,15.7,30.00,North,0,3.5,3.5,15,0.00,CLR,,0.00,WeatherDisplay:10.37,2013-03-11 23:19:00,
2013-03-11 18:24:00,63.9,16.7,30.00,North,0,0.0,2.9,16,0.00,CLR,,0.00,WeatherDisplay:10.37,2013-03-11 23:24:00,
2013-03-11 18:29:00,63.3,16.3,30.00,North,0,0.0,2.9,16,0.00,CLR,,0.00,WeatherDisplay:10.37,2013-03-11 23:29:00,
2013-03-11 18:34:00,63.0,16.0,30.03,North,0,5.8,5.8,16,0.00,CLR,,0.00,WeatherDisplay:10.37,2013-03-11 23:34:00,
2013-03-11 18:39:00,62.6,15.7,30.03,North,0,5.8,5.8,16,0.00,CLR,,0.00,WeatherDisplay:10.37,2013-03-11 23:39:00,
2013-03-11 18:44:00,62.8,15.9,30.03,North,0,5.8,5.8,16,0.00,CLR,,0.00,WeatherDisplay:10.37,2013-03-11 23:44:00,
2013-03-11 18:49:00,62.8,15.9,30.03,NE,45,1.2,1.2,16,0.00,CLR,,0.00,WeatherDisplay:10.37,2013-03-11 23:49:00,
2013-03-11 18:54:00,62.1,15.3,30.03,North,0,4.6,4.6,16,0.00,CLR,,0.00,WeatherDisplay:10.37,2013-03-11 23:54:00,
2013-03-11 18:59:00,61.0,14.4,30.03,SSE,158,2.3,3.1,16,0.00,CLR,,0.00,WeatherDisplay:10.37,2013-03-11 23:59:00,
2013-03-11 19:04:00,59.7,14.8,30.00,SSE,158,2.3,3.1,17,0.00,CLR,,0.00,WeatherDisplay:10.37,2013-03-12 00:04:00,
2013-03-11 19:09:00,58.8,14.0,30.00,SSE,158,2.3,3.1,17,0.00,CLR,,0.00,WeatherDisplay:10.37,2013-03-12 00:09:00,
2013-03-11 19:14:00,57.0,12.6,30.00,SSE,158,2.3,3.1,17,0.00,CLR,,0.00,WeatherDisplay:10.37,2013-03-12 00:14:00,
2013-03-11 19:19:00,55.8,11.5,30.00,SSE,158,2.3,3.1,17,0.00,CLR,,0.00,WeatherDisplay:10.37,2013-03-12 00:19:00,
2013-03-11 19:24:00,54.7,11.9,30.00,SSE,158,2.3,3.1,18,0.00,CLR,,0.00,WeatherDisplay:10.37,2013-03-12 00:24:00,
2013-03-11 19:29:00,53.6,11.0,30.00,SSE,158,2.3,3.1,18,0.00,CLR,,0.00,WeatherDisplay:10.37,2013-03-12 00:29:00,
2013-03-11 19:34:00,52.9,10.5,30.03,SSE,158,2.3,3.1,18,0.00,CLR,,0.00,WeatherDisplay:10.37,2013-03-12 00:34:00,
2013-03-11 19:39:00,52.2,9.9,30.03,SSE,158,2.3,3.1,18,0.00,CLR,,0.00,WeatherDisplay:10.37,2013-03-12 00:39:00,
2013-03-11 19:44:00,51.4,10.5,30.03,SSE,158,2.3,3.1,19,0.00,CLR,,0.00,WeatherDisplay:10.37,2013-03-12 00:44:00,
2013-03-11 19:49:00,50.9,10.0,30.03,SSE,158,2.3,3.1,19,0.00,CLR,,0.00,WeatherDisplay:10.37,2013-03-12 00:49:00,
2013-03-11 19:54:00,50.7,9.9,30.03,SSE,158,2.3,3.1,19,0.00,CLR,,0.00,WeatherDisplay:10.37,2013-03-12 00:54:00,
2013-03-11 19:59:00,50.0,9.3,30.03,SSE,158,2.3,3.1,19,0.00,CLR,,0.00,WeatherDisplay:10.37,2013-03-12 00:59:00,
2013-03-11 20:04:00,49.1,8.5,30.03,SSE,158,2.3,3.1,19,0.00,CLR,,0.00,WeatherDisplay:10.37,2013-03-12 01:04:00,
2013-03-11 20:09:00,48.4,7.9,30.03,SSE,158,2.3,3.1,19,0.00,CLR,,0.00,WeatherDisplay:10.37,2013-03-12 01:09:00,
2013-03-11 20:14:00,47.5,7.2,30.03,SSE,158,2.3,3.1,19,0.00,CLR,,0.00,WeatherDisplay:10.37,2013-03-12 01:14:00,
2013-03-11 20:19:00,46.6,6.4,30.06,SSE,158,2.3,3.1,19,0.00,CLR,,0.00,WeatherDisplay:10.37,2013-03-12 01:19:00,
2013-03-11 20:24:00,46.4,6.3,30.06,SSE,158,2.3,3.1,19,0.00,CLR,,0.00,WeatherDisplay:10.37,2013-03-12 01:24:00,
2013-03-11 20:29:00,45.9,7.0,30.06,SSE,158,2.3,3.1,20,0.00,CLR,,0.00,WeatherDisplay:10.37,2013-03-12 01:29:00,
2013-03-11 20:34:00,45.1,6.4,30.06,SSE,158,2.3,3.1,20,0.00,CLR,,0.00,WeatherDisplay:10.37,2013-03-12 01:34:00,
2013-03-11 20:39:00,44.8,2.5,30.06,SSE,158,2.3,3.1,17,0.00,CLR,,0.00,WeatherDisplay:10.37,2013-03-12 01:39:00,
2013-03-11 20:44:00,44.2,3.3,30.06,SSE,158,2.3,3.1,18,0.00,CLR,,0.00,WeatherDisplay:10.37,2013-03-12 01:44:00,
2013-03-11 20:49:00,43.7,2.9,30.06,SSE,158,2.3,3.1,18,0.00,CLR,,0.00,WeatherDisplay:10.37,2013-03-12 01:49:00,
2013-03-11 20:54:00,43.5,2.7,30.06,SSE,158,2.3,3.1,18,0.00,CLR,,0.00,WeatherDisplay:10.37,2013-03-12 01:54:00,
2013-03-11 20:59:00,43.3,2.6,30.06,SSE,158,2.3,3.1,18,0.00,CLR,,0.00,WeatherDisplay:10.37,2013-03-12 01:59:00,
2013-03-11 21:04:00,43.0,2.3,30.09,SSE,158,2.3,3.1,18,0.00,CLR,,0.00,WeatherDisplay:10.37,2013-03-12 02:04:00,
2013-03-11 21:09:00,42.8,2.1,30.09,SSE,158,2.3,3.1,18,0.00,CLR,,0.00,WeatherDisplay:10.37,2013-03-12 02:09:00,
2013-03-11 21:14:00,42.6,2.0,30.09,SSE,158,2.3,3.1,18,0.00,CLR,,0.00,WeatherDisplay:10.37,2013-03-12 02:14:00,
2013-03-11 21:19:00,42.4,1.8,30.09,SSE,158,2.3,3.1,18,0.00,CLR,,0.00,WeatherDisplay:10.37,2013-03-12 02:19:00,
2013-03-11 21:24:00,42.1,1.5,30.09,SSE,158,2.3,3.1,18,0.00,CLR,,0.00,WeatherDisplay:10.37,2013-03-12 02:24:00,
2013-03-11 21:29:00,42.1,1.5,30.09,SSE,158,2.3,3.1,18,0.00,CLR,,0.00,WeatherDisplay:10.37,2013-03-12 02:29:00,
2013-03-11 21:34:00,42.1,1.5,30.09,SSE,158,2.3,3.1,18,0.00,CLR,,0.00,WeatherDisplay:10.37,2013-03-12 02:34:00,
2013-03-11 21:39:00,41.5,1.1,30.09,SSE,158,2.3,3.1,18,0.00,CLR,,0.00,WeatherDisplay:10.37,2013-03-12 02:39:00,
2013-03-11 21:44:00,41.2,0.8,30.09,SSE,158,2.3,3.1,18,0.00,CLR,,0.00,WeatherDisplay:10.37,2013-03-12 02:44:00,
2013-03-11 21:49:00,41.0,0.6,30.09,SSE,158,2.3,3.1,18,0.00,CLR,,0.00,WeatherDisplay:10.37,2013-03-12 02:49:00,
2013-03-11 21:54:00,41.0,0.6,30.09,SSE,158,2.3,3.1,18,0.00,CLR,,0.00,WeatherDisplay:10.37,2013-03-12 02:54:00,
2013-03-11 21:59:00,40.5,0.2,30.09,SSE,158,2.3,3.1,18,0.00,CLR,,0.00,WeatherDisplay:10.37,2013-03-12 02:59:00,
2013-03-11 22:04:00,40.5,3.5,30.09,SSE,158,2.3,3.1,21,0.00,CLR,,0.00,WeatherDisplay:10.37,2013-03-12 03:04:00,
2013-03-11 22:09:00,40.5,3.5,30.09,SSE,158,2.3,3.1,21,0.00,CLR,,0.00,WeatherDisplay:10.37,2013-03-12 03:09:00,
2013-03-11 22:14:00,40.5,3.5,30.09,SE,135,0.0,0.0,21,0.00,CLR,,0.00,WeatherDisplay:10.37,2013-03-12 03:14:00,
2013-03-11 22:19:00,40.5,3.5,30.09,SE,135,0.0,0.0,21,0.00,CLR,,0.00,WeatherDisplay:10.37,2013-03-12 03:19:00,
2013-03-11 22:25:00,40.3,3.4,30.09,SE,135,0.0,0.0,21,0.00,CLR,,0.00,WeatherDisplay:10.37,2013-03-12 03:25:00,
2013-03-11 22:30:00,39.9,3.1,30.09,SE,135,0.0,0.0,21,0.00,CLR,,0.00,WeatherDisplay:10.37,2013-03-12 03:30:00,
2013-03-11 22:35:00,39.6,2.8,30.09,SE,135,0.0,0.0,21,0.00,CLR,,0.00,WeatherDisplay:10.37,2013-03-12 03:35:00,
2013-03-11 22:40:00,39.7,2.9,30.09,SE,135,0.0,0.0,21,0.00,CLR,,0.00,WeatherDisplay:10.37,2013-03-12 03:40:00,
2013-03-11 22:45:00,39.6,2.8,30.09,SE,135,0.0,0.0,21,0.00,CLR,,0.00,WeatherDisplay:10.37,2013-03-12 03:45:00,
2013-03-11 22:50:00,39.2,2.5,30.09,SE,135,0.0,0.0,21,0.00,CLR,,0.00,WeatherDisplay:10.37,2013-03-12 03:50:00,
2013-03-11 22:55:00,39.2,2.5,30.09,SE,135,0.0,0.0,21,0.00,CLR,,0.00,WeatherDisplay:10.37,2013-03-12 03:55:00,
2013-03-11 23:00:00,38.8,2.2,30.09,SE,135,0.0,0.0,21,0.00,CLR,,0.00,WeatherDisplay:10.37,2013-03-12 04:00:00,
2013-03-11 23:05:00,38.7,2.0,30.09,SE,135,0.0,0.0,21,0.00,CLR,,0.00,WeatherDisplay:10.37,2013-03-12 04:05:00,
2013-03-11 23:10:00,38.8,2.2,30.09,East,90,0.0,0.0,21,0.00,CLR,,0.00,WeatherDisplay:10.37,2013-03-12 04:10:00,
2013-03-11 23:15:00,39.0,2.3,30.09,East,90,0.0,0.0,21,0.00,CLR,,0.00,WeatherDisplay:10.37,2013-03-12 04:15:00,
2013-03-11 23:20:00,38.7,2.0,30.12,East,90,0.0,0.0,21,0.00,CLR,,0.00,WeatherDisplay:10.37,2013-03-12 04:20:00,
2013-03-11 23:25:00,38.5,1.9,30.12,East,90,0.0,0.0,21,0.00,CLR,,0.00,WeatherDisplay:10.37,2013-03-12 04:25:00,
2013-03-11 23:30:00,38.5,1.9,30.12,East,90,0.0,0.0,21,0.00,CLR,,0.00,WeatherDisplay:10.37,2013-03-12 04:30:00,
2013-03-11 23:35:00,38.5,1.9,30.12,East,90,0.0,0.0,21,0.00,CLR,,0.00,WeatherDisplay:10.37,2013-03-12 04:35:00,
2013-03-11 23:40:00,38.1,1.6,30.12,East,90,0.0,0.0,21,0.00,CLR,,0.00,WeatherDisplay:10.37,2013-03-12 04:40:00,
2013-03-11 23:45:00,37.9,1.4,30.12,East,90,0.0,0.0,21,0.00,CLR,,0.00,WeatherDisplay:10.37,2013-03-12 04:45:00,
2013-03-11 23:50:00,38.1,1.6,30.12,East,90,0.0,0.0,21,0.00,CLR,,0.00,WeatherDisplay:10.37,2013-03-12 04:50:00,
2013-03-11 23:55:00,38.1,1.6,30.12,East,90,0.0,0.0,21,0.00,CLR,,0.00,WeatherDisplay:10.37,2013-03-12 04:55:00,